Cap Cleveland — A8MA9 — position and weather

sailwx.info

Track history (hours):
 
Tides and Currents Weather Stations Pressure Air Temp Water Temp Dewpoint Dewpoint Depression Visibility Wind Speed Wind Dir Waves Ship Positions

Cap Cleveland

Last reported at 2018-Jun-14 14:13 UTC. Time now 2018-Jun-18 13:09 UTC.
Position S 37°28' E 176°23'.

Type: Ship (hazmat cat A). MMSI: 636018378.

Date/timePositionNaut miles runAvg speedWind from/ knotsBaromVisibWave heightAir tempDewpointWater temp
2018-Jun-14 14:13S 37°28' E 176°23'418.2
2018-Jun-14 14:00S 37°30' E 176°19'816.3
2018-Jun-14 13:30S 37°36' E 176°11'4 8.2
2018-Jun-14 13:00S 37°40' E 176°11'0 0.1
2018-Jun-14 12:30S 37°40' E 176°11'0 0.0
2018-Jun-14 12:00S 37°40' E 176°11'0 0.0
2018-Jun-14 11:30S 37°40' E 176°11'0 0.0
2018-Jun-14 11:00S 37°40' E 176°11'0 0.0
2018-Jun-14 10:30S 37°40' E 176°11'0 0.0
2018-Jun-14 10:00S 37°40' E 176°11'0 0.0
2018-Jun-14 09:30S 37°40' E 176°11'0 0.0
2018-Jun-14 09:00S 37°40' E 176°11'0 0.0
2018-Jun-14 08:30S 37°40' E 176°11'0 0.0
2018-Jun-14 08:00S 37°40' E 176°11'0 0.0
2018-Jun-14 07:30S 37°40' E 176°11'0 0.0
2018-Jun-14 07:00S 37°40' E 176°11'0 0.1
2018-Jun-14 06:30S 37°40' E 176°11'0 0.1
2018-Jun-14 06:00S 37°40' E 176°11'0 0.0
2018-Jun-14 05:30S 37°40' E 176°11'0 0.0
2018-Jun-14 05:00S 37°40' E 176°11'0 0.0
2018-Jun-14 04:30S 37°40' E 176°11'0 0.0
2018-Jun-14 04:00S 37°40' E 176°11'0 0.0
2018-Jun-14 03:30S 37°40' E 176°11'0 0.0
2018-Jun-14 03:00S 37°40' E 176°11'0 0.0
2018-Jun-14 02:30S 37°40' E 176°11'0 0.0
2018-Jun-14 02:00S 37°40' E 176°11'0 0.0
2018-Jun-14 01:30S 37°40' E 176°11'0 0.0
2018-Jun-14 01:00S 37°40' E 176°11'0 0.0
2018-Jun-14 00:30S 37°40' E 176°11'0 0.0
2018-Jun-14 00:00S 37°40' E 176°11'0 0.0
2018-Jun-13 23:30S 37°40' E 176°11'0 0.1
2018-Jun-13 23:00S 37°40' E 176°11'0 0.1
2018-Jun-13 22:30S 37°40' E 176°11'0 0.0
2018-Jun-13 22:00S 37°40' E 176°11'0 0.0
2018-Jun-13 21:30S 37°40' E 176°11'0 0.0
2018-Jun-13 21:00S 37°40' E 176°11'0 0.0
2018-Jun-13 20:30S 37°40' E 176°11'0 0.0
2018-Jun-13 19:57S 37°40' E 176°11'0 0.5
2018-Jun-13 19:30S 37°40' E 176°11'4 7.4
2018-Jun-13 19:01S 37°36' E 176°11'5 9.4
2018-Jun-13 18:30S 37°32' E 176°15'3 3.8
2018-Jun-13 17:40S 37°30' E 176°18'2 9.9
2018-Jun-13 17:29S 37°29' E 176°20'  
2018-Jun-11 04:41S 39°23' E 177°00'15610.5
2018-Jun-10 13:47S 41°40' E 175°22'516.0
2018-Jun-10 13:30S 41°40' E 175°16'815.3
2018-Jun-10 13:01S 41°39' E 175°06'815.3
2018-Jun-10 12:31S 41°35' E 174°57'815.4
2018-Jun-10 12:01S 41°31' E 174°48'815.6
2018-Jun-10 11:31S 41°28' E 174°38'815.5
2018-Jun-10 11:01S 41°25' E 174°29'815.9
2018-Jun-10 10:31S 41°17' E 174°27'816.7
2018-Jun-10 10:01S 41°09' E 174°30'816.7
2018-Jun-10 09:31S 41°01' E 174°33'714.6
2018-Jun-10 09:01S 40°54' E 174°30'815.7
2018-Jun-10 08:31S 40°48' E 174°23'815.6
2018-Jun-10 08:01S 40°42' E 174°16'815.4
2018-Jun-10 07:31S 40°37' E 174°09'714.8
2018-Jun-10 07:01S 40°31' E 174°02'714.6
2018-Jun-10 06:31S 40°29' E 173°53'814.6
2018-Jun-10 05:58S 40°27' E 173°43'714.7
2018-Jun-10 05:30S 40°25' E 173°35'714.7
2018-Jun-10 05:01S 40°23' E 173°25'714.9
2018-Jun-10 04:31S 40°21' E 173°16'714.9
2018-Jun-10 04:01S 40°20' E 173°06'  
2018-Jun-07 06:42S 39°02' E 148°24'417.3
2018-Jun-07 06:29S 39°03' E 148°19'1117.1
2018-Jun-07 05:51S 39°03' E 148°06'816.9
2018-Jun-07 05:23S 39°03' E 147°55'716.7
2018-Jun-07 04:59S 39°04' E 147°47'816.8
2018-Jun-07 04:30S 39°04' E 147°36'3416.6
2018-Jun-07 02:27S 39°08' E 146°53'817.3
2018-Jun-07 02:01S 39°12' E 146°44'917.2
2018-Jun-07 01:31S 39°16' E 146°34'917.2
2018-Jun-07 01:00S 39°16' E 146°23'917.4
2018-Jun-07 00:31S 39°16' E 146°12'917.3
2018-Jun-07 00:00S 39°12' E 146°02'917.6
2018-Jun-06 23:31S 39°07' E 145°52'917.5
2018-Jun-06 23:00S 39°02' E 145°43'917.4
2018-Jun-06 22:31S 38°57' E 145°34'917.4
2018-Jun-06 22:00S 38°52' E 145°25'156 4.3
2018-Jun-05 10:02S 38°28' E 148°42'118.0
2018-Jun-05 09:59S 38°28' E 148°42'918.5
2018-Jun-05 09:30S 38°22' E 148°52'918.5
2018-Jun-05 09:00S 38°17' E 149°01'26416.4
2018-Jun-04 16:55S 34°16' E 151°15'716.3
2018-Jun-04 16:30S 34°09' E 151°16'714.4
2018-Jun-04 16:00S 34°02' E 151°16'5 7.6
2018-Jun-04 15:24S 33°59' E 151°12'  
Track history (hours):
 
Tides and Currents Weather Stations Pressure Air Temp Water Temp Dewpoint Dewpoint Depression Visibility Wind Speed Wind Dir Waves Ship Positions

Cap Cleveland

Last reported at 2018-Jun-14 14:13 UTC. Time now 2018-Jun-18 13:09 UTC.
Position S 37°28' E 176°23'.

Type: Ship (hazmat cat A). MMSI: 636018378.

Date/timePositionNaut miles runAvg speedWind from/ knotsBaromVisibWave heightAir tempDewpointWater temp
2018-Jun-14 14:13S 37°28' E 176°23'418.2
2018-Jun-14 14:00S 37°30' E 176°19'816.3
2018-Jun-14 13:30S 37°36' E 176°11'4 8.2
2018-Jun-14 13:00S 37°40' E 176°11'0 0.1
2018-Jun-14 12:30S 37°40' E 176°11'0 0.0
2018-Jun-14 12:00S 37°40' E 176°11'0 0.0
2018-Jun-14 11:30S 37°40' E 176°11'0 0.0
2018-Jun-14 11:00S 37°40' E 176°11'0 0.0
2018-Jun-14 10:30S 37°40' E 176°11'0 0.0
2018-Jun-14 10:00S 37°40' E 176°11'0 0.0
2018-Jun-14 09:30S 37°40' E 176°11'0 0.0
2018-Jun-14 09:00S 37°40' E 176°11'0 0.0
2018-Jun-14 08:30S 37°40' E 176°11'0 0.0
2018-Jun-14 08:00S 37°40' E 176°11'0 0.0
2018-Jun-14 07:30S 37°40' E 176°11'0 0.0
2018-Jun-14 07:00S 37°40' E 176°11'0 0.1
2018-Jun-14 06:30S 37°40' E 176°11'0 0.1
2018-Jun-14 06:00S 37°40' E 176°11'0 0.0
2018-Jun-14 05:30S 37°40' E 176°11'0 0.0
2018-Jun-14 05:00S 37°40' E 176°11'0 0.0
2018-Jun-14 04:30S 37°40' E 176°11'0 0.0
2018-Jun-14 04:00S 37°40' E 176°11'0 0.0
2018-Jun-14 03:30S 37°40' E 176°11'0 0.0
2018-Jun-14 03:00S 37°40' E 176°11'0 0.0
2018-Jun-14 02:30S 37°40' E 176°11'0 0.0
2018-Jun-14 02:00S 37°40' E 176°11'0 0.0
2018-Jun-14 01:30S 37°40' E 176°11'0 0.0
2018-Jun-14 01:00S 37°40' E 176°11'0 0.0
2018-Jun-14 00:30S 37°40' E 176°11'0 0.0
2018-Jun-14 00:00S 37°40' E 176°11'0 0.0
2018-Jun-13 23:30S 37°40' E 176°11'0 0.1
2018-Jun-13 23:00S 37°40' E 176°11'0 0.1
2018-Jun-13 22:30S 37°40' E 176°11'0 0.0
2018-Jun-13 22:00S 37°40' E 176°11'0 0.0
2018-Jun-13 21:30S 37°40' E 176°11'0 0.0
2018-Jun-13 21:00S 37°40' E 176°11'0 0.0
2018-Jun-13 20:30S 37°40' E 176°11'0 0.0
2018-Jun-13 19:57S 37°40' E 176°11'0 0.5
2018-Jun-13 19:30S 37°40' E 176°11'4 7.4
2018-Jun-13 19:01S 37°36' E 176°11'5 9.4
2018-Jun-13 18:30S 37°32' E 176°15'3 3.8
2018-Jun-13 17:40S 37°30' E 176°18'2 9.9
2018-Jun-13 17:29S 37°29' E 176°20'  
2018-Jun-11 04:41S 39°23' E 177°00'15610.5
2018-Jun-10 13:47S 41°40' E 175°22'516.0
2018-Jun-10 13:30S 41°40' E 175°16'815.3
2018-Jun-10 13:01S 41°39' E 175°06'815.3
2018-Jun-10 12:31S 41°35' E 174°57'815.4
2018-Jun-10 12:01S 41°31' E 174°48'815.6
2018-Jun-10 11:31S 41°28' E 174°38'815.5
2018-Jun-10 11:01S 41°25' E 174°29'815.9
2018-Jun-10 10:31S 41°17' E 174°27'816.7
2018-Jun-10 10:01S 41°09' E 174°30'816.7
2018-Jun-10 09:31S 41°01' E 174°33'714.6
2018-Jun-10 09:01S 40°54' E 174°30'815.7
2018-Jun-10 08:31S 40°48' E 174°23'815.6
2018-Jun-10 08:01S 40°42' E 174°16'815.4
2018-Jun-10 07:31S 40°37' E 174°09'714.8
2018-Jun-10 07:01S 40°31' E 174°02'714.6
2018-Jun-10 06:31S 40°29' E 173°53'814.6
2018-Jun-10 05:58S 40°27' E 173°43'714.7
2018-Jun-10 05:30S 40°25' E 173°35'714.7
2018-Jun-10 05:01S 40°23' E 173°25'714.9
2018-Jun-10 04:31S 40°21' E 173°16'714.9
2018-Jun-10 04:01S 40°20' E 173°06'  
2018-Jun-07 06:42S 39°02' E 148°24'417.3
2018-Jun-07 06:29S 39°03' E 148°19'1117.1
2018-Jun-07 05:51S 39°03' E 148°06'816.9
2018-Jun-07 05:23S 39°03' E 147°55'716.7
2018-Jun-07 04:59S 39°04' E 147°47'816.8
2018-Jun-07 04:30S 39°04' E 147°36'3416.6
2018-Jun-07 02:27S 39°08' E 146°53'817.3
2018-Jun-07 02:01S 39°12' E 146°44'917.2
2018-Jun-07 01:31S 39°16' E 146°34'917.2
2018-Jun-07 01:00S 39°16' E 146°23'917.4
2018-Jun-07 00:31S 39°16' E 146°12'917.3
2018-Jun-07 00:00S 39°12' E 146°02'917.6
2018-Jun-06 23:31S 39°07' E 145°52'917.5
2018-Jun-06 23:00S 39°02' E 145°43'917.4
2018-Jun-06 22:31S 38°57' E 145°34'917.4
2018-Jun-06 22:00S 38°52' E 145°25'156 4.3
2018-Jun-05 10:02S 38°28' E 148°42'118.0
2018-Jun-05 09:59S 38°28' E 148°42'918.5
2018-Jun-05 09:30S 38°22' E 148°52'918.5
2018-Jun-05 09:00S 38°17' E 149°01'26416.4
2018-Jun-04 16:55S 34°16' E 151°15'716.3
2018-Jun-04 16:30S 34°09' E 151°16'714.4
2018-Jun-04 16:00S 34°02' E 151°16'5 7.6
2018-Jun-04 15:24S 33°59' E 151°12'  

Dump ship's entire track history